Time;durP1;ratioP1;P1;durP2;ratioP2;P2;SDS_P1;SDS_P2;PMS_P1;PMS_P2;Temp;Humidity;BMP_temperature;BMP_pressure;BME280_temperature;BME280_humidity;BME280_pressure;Samples;Min_cycle;Max_cycle;Signal;HPM_P1;HPM_P2
2021/12/06 00:01:41;;;;;;;3.37;3.07;;;3.50;93.60;;;;;;947917;150;27344;-80
2021/12/06 00:04:11;;;;;;;4.83;3.50;;;3.50;93.70;;;;;;954208;148;27309;-80
2021/12/06 00:06:37;;;;;;;3.40;3.13;;;3.50;93.70;;;;;;957940;147;27407;-80
2021/12/06 00:09:07;;;;;;;4.03;3.23;;;3.50;93.80;;;;;;964455;148;27357;-80
2021/12/06 00:11:34;;;;;;;4.43;3.97;;;3.50;94.00;;;;;;957674;148;27316;-80
2021/12/06 00:14:01;;;;;;;5.20;4.70;;;3.50;94.10;;;;;;955578;150;27997;-80
2021/12/06 00:16:26;;;;;;;6.23;5.10;;;3.60;94.30;;;;;;948532;148;27317;-81
2021/12/06 00:18:53;;;;;;;6.20;5.60;;;3.50;94.40;;;;;;962870;148;27319;-80
2021/12/06 00:21:20;;;;;;;5.97;5.37;;;3.60;94.50;;;;;;954950;150;27277;-80
2021/12/06 00:23:46;;;;;;;5.83;5.23;;;3.60;94.60;;;;;;954664;148;27315;-80
2021/12/06 00:26:13;;;;;;;6.20;5.60;;;3.60;94.70;;;;;;959122;148;27294;-80
2021/12/06 00:28:40;;;;;;;7.33;6.17;;;3.70;94.90;;;;;;958989;147;27440;-80
2021/12/06 00:31:06;;;;;;;6.70;5.30;;;3.70;94.80;;;;;;958320;148;27343;-80
2021/12/06 00:33:32;;;;;;;5.90;5.07;;;3.80;94.90;;;;;;954901;150;27760;-80
2021/12/06 00:36:04;;;;;;;4.97;4.57;;;3.80;94.90;;;;;;966528;148;27302;-80
2021/12/06 00:38:26;;;;;;;3.93;3.53;;;3.80;94.80;;;;;;971541;148;27318;-80
2021/12/06 00:40:52;;;;;;;3.80;3.50;;;3.80;94.80;;;;;;948594;148;27338;-80
2021/12/06 00:43:19;;;;;;;4.87;3.87;;;3.90;94.70;;;;;;957543;148;27428;-80
2021/12/06 00:45:45;;;;;;;3.90;3.60;;;3.90;94.60;;;;;;953524;148;27340;-80
2021/12/06 00:48:12;;;;;;;3.90;3.50;;;3.90;94.60;;;;;;955881;150;27386;-80
2021/12/06 00:50:39;;;;;;;4.47;4.07;;;3.90;94.60;;;;;;962717;148;27433;-80
2021/12/06 00:53:05;;;;;;;6.30;3.53;;;3.90;94.70;;;;;;954958;150;27316;-80
2021/12/06 00:55:32;;;;;;;3.87;3.47;;;3.90;94.60;;;;;;959016;148;27414;-80
2021/12/06 00:57:58;;;;;;;5.03;4.53;;;3.90;94.70;;;;;;957714;150;27702;-80
2021/12/06 01:00:34;;;;;;;4.20;3.80;;;3.90;94.60;;;;;;952927;148;27338;-80
2021/12/06 01:02:57;;;;;;;4.70;4.20;;;3.90;94.70;;;;;;954765;150;27348;-80
2021/12/06 01:05:24;;;;;;;4.47;4.07;;;3.90;94.80;;;;;;955438;150;27383;-80
2021/12/06 01:07:51;;;;;;;4.37;3.97;;;4.00;94.90;;;;;;955907;148;27421;-80
2021/12/06 01:10:17;;;;;;;5.70;4.10;;;4.00;95.20;;;;;;953938;148;27409;-80
2021/12/06 01:12:44;;;;;;;3.80;3.50;;;4.00;94.90;;;;;;951573;148;27334;-80
2021/12/06 01:15:10;;;;;;;6.30;3.40;;;4.00;94.90;;;;;;961085;148;27397;-80
2021/12/06 01:17:37;;;;;;;3.90;3.20;;;4.10;94.90;;;;;;955116;149;27435;-80
2021/12/06 01:20:07;;;;;;;6.40;3.63;;;4.10;94.80;;;;;;954765;148;27757;-80
2021/12/06 01:22:47;;;;;;;4.43;4.03;;;4.10;94.70;;;;;;940600;148;27397;-80
2021/12/06 01:25:04;;;;;;;4.07;3.60;;;4.20;94.60;;;;;;936604;150;27361;-80
2021/12/06 01:27:40;;;;;;;3.93;3.60;;;4.20;94.40;;;;;;951504;150;27815;-80
2021/12/06 01:40:19;;;;;;;2.93;2.70;;;4.10;93.80;;;;;;953180;148;27398;-80
2021/12/06 01:42:42;;;;;;;2.93;2.73;;;4.00;93.70;;;;;;947702;150;27317;-80
2021/12/06 01:45:08;;;;;;;3.70;3.00;;;3.90;93.60;;;;;;954743;150;27307;-80
2021/12/06 01:47:35;;;;;;;3.00;2.70;;;3.90;93.60;;;;;;953497;148;27424;-80
2021/12/06 01:50:01;;;;;;;3.47;3.17;;;3.80;93.50;;;;;;955030;150;27347;-80
2021/12/06 01:52:28;;;;;;;3.27;2.97;;;3.80;93.40;;;;;;943543;150;27352;-80
2021/12/06 01:54:55;;;;;;;2.73;2.53;;;3.70;93.30;;;;;;955211;148;27279;-80
2021/12/06 01:57:21;;;;;;;2.77;2.57;;;3.70;93.30;;;;;;944752;150;27446;-80
2021/12/06 01:59:48;;;;;;;3.07;2.77;;;3.60;93.20;;;;;;954017;150;27423;-80
2021/12/06 02:02:14;;;;;;;2.93;2.57;;;3.50;93.20;;;;;;956457;150;27342;-80
2021/12/06 02:04:41;;;;;;;2.60;2.40;;;3.40;93.20;;;;;;956705;150;27430;-80
2021/12/06 02:07:07;;;;;;;2.70;2.50;;;3.40;93.30;;;;;;948692;150;27346;-80
2021/12/06 02:09:34;;;;;;;2.73;2.50;;;3.30;93.30;;;;;;953425;150;27424;-80
2021/12/06 02:12:02;;;;;;;3.00;2.63;;;3.30;93.40;;;;;;956078;148;27308;-80
2021/12/06 02:14:51;;;;;;;2.83;2.57;;;3.20;93.40;;;;;;949751;148;27341;-80
2021/12/06 02:17:13;;;;;;;2.73;2.50;;;3.10;93.50;;;;;;952515;150;27331;-80
2021/12/06 02:19:38;;;;;;;2.97;2.77;;;3.10;93.60;;;;;;957067;147;27339;-80
2021/12/06 02:22:01;;;;;;;2.77;2.57;;;3.00;93.60;;;;;;944120;148;27297;-81
2021/12/06 02:24:28;;;;;;;3.63;2.77;;;3.00;93.70;;;;;;947304;150;28340;-81
2021/12/06 02:26:54;;;;;;;3.83;2.73;;;2.90;93.70;;;;;;959469;148;27278;-81
2021/12/06 02:29:21;;;;;;;4.43;3.03;;;2.90;93.80;;;;;;967016;147;27353;-81
2021/12/06 02:31:48;;;;;;;4.93;3.33;;;2.80;93.90;;;;;;953408;150;27336;-81
2021/12/06 02:34:14;;;;;;;26.67;6.27;;;2.80;94.00;;;;;;953903;150;27417;-80
2021/12/06 02:36:42;;;;;;;30.77;6.43;;;2.70;94.10;;;;;;955617;148;27307;-80
2021/12/06 02:39:11;;;;;;;5.17;3.60;;;2.70;94.30;;;;;;951075;149;27477;-80
2021/12/06 02:41:37;;;;;;;4.27;3.63;;;2.70;94.50;;;;;;954503;150;27362;-80
2021/12/06 02:44:03;;;;;;;5.00;3.67;;;2.70;94.60;;;;;;958369;147;27273;-80
2021/12/06 02:46:30;;;;;;;3.30;3.00;;;2.70;94.60;;;;;;956464;148;27308;-80
2021/12/06 02:48:56;;;;;;;4.37;3.87;;;2.70;94.60;;;;;;954883;150;27927;-81
2021/12/06 02:51:26;;;;;;;4.23;3.83;;;2.70;94.60;;;;;;957578;148;27331;-81
2021/12/06 02:53:49;;;;;;;4.27;3.87;;;2.70;94.60;;;;;;955114;148;27303;-81
2021/12/06 02:56:34;;;;;;;5.53;4.20;;;2.70;94.60;;;;;;958771;148;27374;-81
2021/12/06 02:58:58;;;;;;;3.47;3.17;;;2.70;94.60;;;;;;950684;148;27439;-80
2021/12/06 03:01:27;;;;;;;4.63;3.83;;;2.70;94.60;;;;;;946700;150;27440;-81
2021/12/06 03:03:54;;;;;;;3.90;3.60;;;2.70;94.60;;;;;;947680;149;27396;-81
2021/12/06 03:06:20;;;;;;;4.57;4.17;;;2.60;94.50;;;;;;959666;148;27314;-81
2021/12/06 03:09:01;;;;;;;8.50;4.53;;;2.60;94.50;;;;;;957156;148;27331;-81
2021/12/06 03:11:19;;;;;;;5.03;4.57;;;2.60;94.50;;;;;;948116;150;27340;-81
2021/12/06 03:13:46;;;;;;;4.13;3.77;;;2.50;94.40;;;;;;951413;150;27288;-81
2021/12/06 03:16:12;;;;;;;4.07;3.77;;;2.50;94.50;;;;;;948880;150;27414;-81
2021/12/06 03:18:39;;;;;;;4.77;4.27;;;2.50;94.50;;;;;;946371;150;27771;-81
2021/12/06 03:21:06;;;;;;;4.43;4.03;;;2.50;94.50;;;;;;947833;148;27314;-81
2021/12/06 03:23:32;;;;;;;4.47;4.07;;;2.40;94.50;;;;;;956331;147;27700;-81
2021/12/06 03:25:59;;;;;;;4.77;4.27;;;2.40;94.40;;;;;;956605;150;27252;-81
2021/12/06 03:28:25;;;;;;;4.33;3.93;;;2.40;94.50;;;;;;958428;150;27284;-81
2021/12/06 03:30:55;;;;;;;4.77;4.13;;;2.30;94.60;;;;;;956176;147;27403;-83
2021/12/06 03:33:18;;;;;;;4.83;4.27;;;2.30;94.70;;;;;;953385;150;27433;-81
2021/12/06 03:35:45;;;;;;;4.77;4.37;;;2.30;94.80;;;;;;938552;153;27353;-80
2021/12/06 03:38:12;;;;;;;4.70;4.20;;;2.30;94.80;;;;;;954503;150;27421;-81
2021/12/06 03:40:38;;;;;;;4.57;4.00;;;2.20;94.90;;;;;;958068;148;27334;-81
2021/12/06 03:43:05;;;;;;;4.40;4.00;;;2.20;95.00;;;;;;960091;148;27359;-80
2021/12/06 03:45:31;;;;;;;3.97;3.63;;;2.20;95.20;;;;;;961918;148;27290;-80
2021/12/06 03:47:58;;;;;;;4.47;4.07;;;2.20;95.40;;;;;;970402;148;27302;-81
2021/12/06 03:50:25;;;;;;;4.63;4.23;;;2.30;95.70;;;;;;954442;148;27324;-81
2021/12/06 03:52:51;;;;;;;3.93;3.53;;;2.30;96.00;;;;;;952712;148;27407;-80
2021/12/06 03:55:18;;;;;;;5.67;4.07;;;2.40;96.30;;;;;;944719;150;27444;-81
2021/12/06 03:57:44;;;;;;;4.33;3.93;;;2.40;96.40;;;;;;956342;150;27320;-80
2021/12/06 04:00:11;;;;;;;5.20;4.70;;;2.50;96.60;;;;;;956617;148;27369;-80
2021/12/06 04:02:38;;;;;;;4.77;4.20;;;2.60;96.80;;;;;;953532;150;27404;-80
2021/12/06 04:05:04;;;;;;;4.67;4.20;;;2.70;96.90;;;;;;955773;150;27307;-80
2021/12/06 04:07:31;;;;;;;5.30;3.87;;;2.80;97.00;;;;;;964380;148;27368;-80
2021/12/06 04:09:57;;;;;;;4.77;4.27;;;2.90;97.00;;;;;;955824;150;27321;-80
2021/12/06 04:12:24;;;;;;;5.83;4.57;;;3.00;96.90;;;;;;954183;150;27833;-80
2021/12/06 04:14:51;;;;;;;6.00;4.03;;;3.00;96.90;;;;;;938677;150;27359;-81
2021/12/06 04:17:17;;;;;;;5.37;4.83;;;3.10;96.80;;;;;;936690;150;27423;-81
2021/12/06 04:19:44;;;;;;;5.03;4.53;;;3.20;96.60;;;;;;941218;148;27308;-80
2021/12/06 04:22:10;;;;;;;5.60;4.43;;;3.30;96.50;;;;;;954747;148;27317;-80
2021/12/06 04:24:37;;;;;;;7.80;4.47;;;3.30;96.40;;;;;;956025;148;27311;-81
2021/12/06 04:27:13;;;;;;;6.57;4.77;;;3.40;96.40;;;;;;947119;150;27443;-81
2021/12/06 04:29:30;;;;;;;6.50;4.83;;;3.40;96.30;;;;;;937833;150;27320;-81
2021/12/06 04:31:57;;;;;;;9.70;4.80;;;3.40;96.20;;;;;;946540;148;27324;-81
2021/12/06 04:34:23;;;;;;;10.30;4.90;;;3.50;96.30;;;;;;938409;152;27321;-80
2021/12/06 04:36:50;;;;;;;11.70;5.40;;;3.50;96.30;;;;;;950011;148;27423;-81
2021/12/06 04:39:16;;;;;;;12.40;6.37;;;3.60;96.40;;;;;;971554;147;27399;-81
2021/12/06 04:41:43;;;;;;;6.40;4.63;;;3.60;96.30;;;;;;966684;148;27310;-80
2021/12/06 04:44:10;;;;;;;9.47;5.93;;;3.60;96.30;;;;;;971553;148;27290;-81
2021/12/06 04:46:37;;;;;;;9.87;5.33;;;3.70;96.30;;;;;;970687;147;27290;-80
2021/12/06 04:49:03;;;;;;;12.03;5.80;;;3.70;96.40;;;;;;947859;150;27445;-80
2021/12/06 04:51:29;;;;;;;7.03;5.40;;;3.70;96.40;;;;;;944065;150;27330;-80
2021/12/06 04:53:56;;;;;;;8.23;4.73;;;3.80;96.40;;;;;;952210;147;27316;-80
2021/12/06 04:56:23;;;;;;;7.13;5.30;;;3.80;96.30;;;;;;969904;148;27384;-80
2021/12/06 04:58:55;;;;;;;8.17;5.10;;;3.90;96.40;;;;;;964696;148;27343;-80
2021/12/06 05:01:21;;;;;;;11.30;5.47;;;3.90;96.30;;;;;;950124;148;27346;-80
2021/12/06 05:03:48;;;;;;;9.83;5.63;;;3.90;96.30;;;;;;953884;148;27320;-80
2021/12/06 05:06:14;;;;;;;7.57;5.97;;;3.90;96.20;;;;;;947883;148;27321;-80
2021/12/06 05:08:44;;;;;;;14.37;6.37;;;4.00;96.20;;;;;;946544;150;27331;-81
2021/12/06 05:11:10;;;;;;;6.50;4.90;;;4.00;96.20;;;;;;941633;148;27468;-81
2021/12/06 05:13:37;;;;;;;7.63;5.70;;;4.00;96.10;;;;;;944045;148;27310;-80
2021/12/06 05:16:03;;;;;;;8.30;6.03;;;4.10;96.10;;;;;;954382;150;27304;-81
2021/12/06 05:18:30;;;;;;;8.07;6.03;;;4.10;96.00;;;;;;940457;148;27304;-81
2021/12/06 05:20:56;;;;;;;11.23;6.07;;;4.10;96.00;;;;;;944825;150;27342;-81
2021/12/06 05:23:23;;;;;;;12.80;6.60;;;4.10;96.00;;;;;;965511;148;27274;-80
2021/12/06 05:25:50;;;;;;;9.00;6.17;;;4.10;95.90;;;;;;959286;147;27384;-80
2021/12/06 05:28:17;;;;;;;11.07;6.23;;;4.20;95.90;;;;;;952911;150;27299;-81
2021/12/06 05:30:44;;;;;;;8.27;5.87;;;4.20;95.90;;;;;;949652;150;27310;-80
2021/12/06 05:33:17;;;;;;;8.20;6.03;;;4.20;95.90;;;;;;940534;150;27365;-81
2021/12/06 05:35:36;;;;;;;8.20;6.13;;;4.20;95.90;;;;;;951238;150;27404;-80
2021/12/06 05:38:03;;;;;;;6.97;5.87;;;4.20;95.90;;;;;;943159;150;27293;-81
2021/12/06 05:40:29;;;;;;;8.67;5.97;;;4.20;95.90;;;;;;949060;150;27344;-81
2021/12/06 05:42:56;;;;;;;8.77;6.87;;;4.20;95.80;;;;;;935760;150;27341;-80
2021/12/06 05:45:22;;;;;;;6.83;5.57;;;4.30;95.80;;;;;;962120;148;27262;-81
2021/12/06 05:47:49;;;;;;;7.20;6.20;;;4.30;95.70;;;;;;952312;150;27416;-80
2021/12/06 05:50:15;;;;;;;8.10;6.30;;;4.30;95.70;;;;;;953746;150;27385;-80
2021/12/06 05:52:42;;;;;;;8.03;6.30;;;4.30;95.60;;;;;;965758;148;27994;-80
2021/12/06 05:55:09;;;;;;;7.53;5.80;;;4.30;95.60;;;;;;955887;148;27293;-80
2021/12/06 05:57:35;;;;;;;7.50;5.80;;;4.30;95.60;;;;;;944008;150;27345;-80
2021/12/06 06:00:02;;;;;;;8.80;6.27;;;4.30;95.50;;;;;;950383;148;27403;-80
2021/12/06 06:02:29;;;;;;;6.27;5.63;;;4.30;95.40;;;;;;940813;148;27436;-80
2021/12/06 06:04:55;;;;;;;6.77;5.30;;;4.30;95.40;;;;;;953869;150;27412;-80
2021/12/06 06:07:22;;;;;;;8.63;6.07;;;4.40;95.40;;;;;;953504;150;27731;-81
2021/12/06 06:09:48;;;;;;;7.10;5.97;;;4.30;95.50;;;;;;954438;150;27308;-80
2021/12/06 06:12:15;;;;;;;6.93;5.97;;;4.40;95.50;;;;;;957768;150;27263;-80
2021/12/06 06:14:41;;;;;;;7.23;5.67;;;4.40;95.50;;;;;;947027;150;27313;-80
2021/12/06 06:17:11;;;;;;;7.67;5.57;;;4.40;95.50;;;;;;950231;150;27336;-80
2021/12/06 06:19:35;;;;;;;6.20;5.43;;;4.40;95.50;;;;;;954324;150;27408;-80
2021/12/06 06:22:01;;;;;;;6.33;5.10;;;4.40;95.50;;;;;;954434;147;27327;-81
2021/12/06 06:24:28;;;;;;;6.13;5.53;;;4.40;95.40;;;;;;957100;148;27324;-81
2021/12/06 06:26:54;;;;;;;6.13;4.50;;;4.40;95.40;;;;;;955428;147;27321;-80
2021/12/06 06:29:21;;;;;;;5.47;4.87;;;4.40;95.30;;;;;;960963;148;27732;-80
2021/12/06 06:31:47;;;;;;;6.13;5.23;;;4.40;95.30;;;;;;971728;148;27286;-80
2021/12/06 06:34:14;;;;;;;6.57;5.47;;;4.50;95.30;;;;;;961798;147;27755;-80
2021/12/06 06:36:41;;;;;;;6.60;5.53;;;4.50;95.30;;;;;;959240;146;27337;-80
2021/12/06 06:39:07;;;;;;;6.30;5.03;;;4.50;95.30;;;;;;951636;150;27265;-80
2021/12/06 06:41:35;;;;;;;6.90;5.33;;;4.50;95.30;;;;;;947177;149;27366;-80
2021/12/06 06:44:00;;;;;;;7.03;5.77;;;4.50;95.30;;;;;;949344;151;27340;-80
2021/12/06 06:46:27;;;;;;;7.00;5.73;;;4.50;95.20;;;;;;956301;146;27845;-81
2021/12/06 06:48:54;;;;;;;8.17;6.13;;;4.50;95.20;;;;;;953018;146;27257;-80
2021/12/06 06:51:20;;;;;;;9.20;6.27;;;4.50;95.10;;;;;;947856;149;27294;-80
2021/12/06 06:53:47;;;;;;;9.27;5.83;;;4.50;95.20;;;;;;947894;149;27353;-80
2021/12/06 06:56:13;;;;;;;8.73;6.40;;;4.50;95.20;;;;;;951415;149;27318;-81
2021/12/06 06:58:40;;;;;;;8.90;6.50;;;4.50;95.20;;;;;;950173;148;27933;-80
2021/12/06 07:01:06;;;;;;;9.00;6.73;;;4.50;95.20;;;;;;957088;148;27285;-81
2021/12/06 07:03:33;;;;;;;8.70;6.00;;;4.50;95.20;;;;;;951324;148;27434;-82
2021/12/06 07:06:00;;;;;;;10.97;6.57;;;4.50;95.20;;;;;;947299;148;27374;-80
2021/12/06 07:08:27;;;;;;;10.37;7.13;;;4.60;95.20;;;;;;937928;151;27345;-81
2021/12/06 07:10:54;;;;;;;9.67;6.60;;;4.60;95.20;;;;;;940433;151;27372;-81
2021/12/06 07:13:20;;;;;;;11.70;7.47;;;4.60;95.10;;;;;;949789;151;27399;-80
2021/12/06 07:15:46;;;;;;;10.50;6.27;;;4.60;95.20;;;;;;948946;149;27331;-81
2021/12/06 07:18:12;;;;;;;10.10;6.67;;;4.60;95.20;;;;;;932029;154;27334;-81
2021/12/06 07:20:39;;;;;;;10.67;6.87;;;4.60;95.20;;;;;;945941;151;27408;-80
2021/12/06 07:23:06;;;;;;;18.17;8.43;;;4.60;95.30;;;;;;948009;149;27463;-80
2021/12/06 07:25:34;;;;;;;12.00;6.70;;;4.60;95.30;;;;;;956361;148;27329;-80
2021/12/06 07:27:59;;;;;;;19.93;8.33;;;4.60;95.40;;;;;;948669;148;27317;-81
2021/12/06 07:30:25;;;;;;;17.13;7.60;;;4.60;95.40;;;;;;956032;149;27394;-81
2021/12/06 07:32:52;;;;;;;14.87;7.67;;;4.70;95.40;;;;;;950574;149;27736;-81
2021/12/06 07:35:19;;;;;;;18.17;7.97;;;4.70;95.40;;;;;;944125;151;27313;-81
2021/12/06 07:37:45;;;;;;;16.27;7.93;;;4.70;95.50;;;;;;934904;149;27387;-80
2021/12/06 07:40:12;;;;;;;15.27;7.03;;;4.70;95.50;;;;;;935638;150;27362;-80
2021/12/06 07:42:38;;;;;;;17.80;8.13;;;4.70;95.50;;;;;;950097;149;27353;-80
2021/12/06 07:45:05;;;;;;;10.33;6.60;;;4.80;95.50;;;;;;947697;148;27318;-80
2021/12/06 07:47:32;;;;;;;11.37;8.10;;;4.80;95.50;;;;;;945644;149;27306;-80
2021/12/06 07:49:58;;;;;;;10.93;7.63;;;4.80;95.40;;;;;;948694;149;27879;-80
2021/12/06 07:52:25;;;;;;;8.20;6.23;;;4.80;95.40;;;;;;943728;151;27341;-80
2021/12/06 07:54:53;;;;;;;12.00;6.93;;;4.90;95.40;;;;;;959250;149;27383;-80
2021/12/06 07:57:18;;;;;;;11.47;7.77;;;4.90;95.40;;;;;;948712;150;27325;-80
2021/12/06 07:59:44;;;;;;;10.13;7.20;;;4.90;95.30;;;;;;960800;146;27249;-81
2021/12/06 08:02:11;;;;;;;12.07;7.90;;;4.90;95.20;;;;;;975908;146;27377;-81
2021/12/06 08:04:38;;;;;;;9.77;6.70;;;4.90;95.10;;;;;;962022;144;27422;-80
2021/12/06 08:07:04;;;;;;;11.17;7.23;;;4.90;95.10;;;;;;934311;153;27392;-80
2021/12/06 08:09:31;;;;;;;10.63;7.10;;;4.90;95.10;;;;;;965051;148;27394;-80
2021/12/06 08:11:58;;;;;;;10.63;7.23;;;4.90;95.00;;;;;;945387;149;27367;-80
2021/12/06 08:14:24;;;;;;;8.33;6.23;;;4.90;95.10;;;;;;952431;149;27341;-80
2021/12/06 08:16:51;;;;;;;9.13;7.10;;;4.90;95.10;;;;;;943782;149;27338;-81
2021/12/06 08:19:17;;;;;;;10.00;6.73;;;5.00;95.30;;;;;;945826;149;27298;-80
2021/12/06 08:21:44;;;;;;;8.67;6.23;;;5.00;95.50;;;;;;956352;149;27432;-81
2021/12/06 08:24:10;;;;;;;8.17;5.77;;;5.10;95.60;;;;;;957417;149;27279;-80
2021/12/06 08:26:37;;;;;;;8.13;5.97;;;5.10;95.60;;;;;;952475;150;27306;-79
2021/12/06 08:29:05;;;;;;;8.00;6.37;;;5.20;95.70;;;;;;952374;150;27283;-78
2021/12/06 08:31:30;;;;;;;7.23;5.70;;;5.20;95.70;;;;;;956815;150;27416;-78
2021/12/06 08:33:57;;;;;;;8.20;5.60;;;5.30;95.80;;;;;;958831;148;27683;-81
2021/12/06 08:36:24;;;;;;;7.23;5.73;;;5.30;95.70;;;;;;954852;148;27292;-81
2021/12/06 08:38:50;;;;;;;6.83;5.37;;;5.40;95.60;;;;;;943700;150;27327;-81
2021/12/06 08:41:16;;;;;;;6.30;5.03;;;5.50;95.80;;;;;;950866;150;27319;-81
2021/12/06 08:43:43;;;;;;;4.80;4.30;;;5.60;95.40;;;;;;944281;150;27335;-81
2021/12/06 08:46:19;;;;;;;5.90;4.70;;;5.60;95.30;;;;;;956533;150;27315;-81
2021/12/06 08:48:45;;;;;;;6.13;5.30;;;5.70;95.20;;;;;;952894;150;27728;-81
2021/12/06 08:51:11;;;;;;;5.70;5.03;;;5.70;95.10;;;;;;950982;150;27428;-81
2021/12/06 08:53:38;;;;;;;6.60;5.43;;;5.80;95.00;;;;;;942793;149;27342;-81
2021/12/06 08:56:05;;;;;;;5.93;5.03;;;5.90;95.00;;;;;;934702;153;27354;-81
2021/12/06 08:58:31;;;;;;;5.73;5.13;;;5.90;94.80;;;;;;934851;153;27335;-81
2021/12/06 09:00:58;;;;;;;4.90;4.47;;;6.00;94.80;;;;;;943207;150;27331;-80
2021/12/06 09:03:24;;;;;;;5.90;4.57;;;6.00;94.90;;;;;;956829;150;27305;-81
2021/12/06 09:05:51;;;;;;;5.90;5.30;;;6.10;95.00;;;;;;938319;151;27341;-81
2021/12/06 09:08:17;;;;;;;6.70;5.53;;;6.20;95.10;;;;;;950785;150;27352;-81
2021/12/06 09:10:44;;;;;;;5.50;4.93;;;6.30;95.10;;;;;;953136;150;28787;-81
2021/12/06 09:13:11;;;;;;;6.17;5.47;;;6.40;95.00;;;;;;951625;150;27302;-81
2021/12/06 09:15:37;;;;;;;6.17;5.37;;;6.40;94.70;;;;;;957343;150;27411;-81
2021/12/06 09:18:04;;;;;;;15.40;6.80;;;6.50;94.50;;;;;;947832;149;27292;-81
2021/12/06 09:20:30;;;;;;;7.67;6.03;;;6.60;94.20;;;;;;957527;149;27298;-81
2021/12/06 09:22:57;;;;;;;6.37;5.37;;;6.70;93.90;;;;;;952119;147;27420;-81
2021/12/06 09:25:24;;;;;;;6.53;5.33;;;6.70;93.60;;;;;;942854;150;27287;-81
2021/12/06 09:27:50;;;;;;;6.63;5.97;;;6.70;93.20;;;;;;952304;150;27259;-82
2021/12/06 09:30:17;;;;;;;6.00;5.40;;;6.70;93.00;;;;;;956203;150;27279;-82
2021/12/06 09:32:43;;;;;;;6.70;6.00;;;6.70;92.90;;;;;;948180;150;27287;-82
2021/12/06 09:35:13;;;;;;;7.40;6.30;;;6.60;92.90;;;;;;945842;150;27368;-81
2021/12/06 09:37:39;;;;;;;8.00;6.23;;;6.60;93.00;;;;;;956605;150;27280;-81
2021/12/06 09:40:03;;;;;;;7.57;6.47;;;6.60;93.20;;;;;;964641;147;27851;-81
2021/12/06 09:42:33;;;;;;;7.93;6.03;;;6.60;93.40;;;;;;954222;149;27339;-82
2021/12/06 09:44:56;;;;;;;8.37;6.07;;;6.60;93.40;;;;;;952533;150;27315;-81
2021/12/06 09:47:23;;;;;;;8.63;6.03;;;6.70;93.40;;;;;;956385;149;27269;-81
2021/12/06 09:49:49;;;;;;;6.57;5.87;;;6.70;93.50;;;;;;954973;150;27273;-82
2021/12/06 09:52:16;;;;;;;7.80;6.23;;;6.70;93.60;;;;;;951149;150;27302;-81
2021/12/06 09:54:43;;;;;;;7.13;6.20;;;6.70;93.60;;;;;;947991;150;27391;-81
2021/12/06 09:57:09;;;;;;;7.93;7.13;;;6.80;93.60;;;;;;948355;150;27693;-81
2021/12/06 09:59:36;;;;;;;7.27;6.40;;;6.90;93.60;;;;;;951301;150;27397;-80
2021/12/06 10:02:08;;;;;;;6.97;5.60;;;6.90;93.60;;;;;;947522;149;27373;-80
2021/12/06 10:04:35;;;;;;;6.97;6.27;;;7.00;93.50;;;;;;956599;147;27664;-80
2021/12/06 10:07:01;;;;;;;7.33;6.63;;;7.00;93.50;;;;;;952804;147;27322;-80
2021/12/06 10:09:28;;;;;;;7.20;6.33;;;7.00;93.30;;;;;;953575;147;27295;-79
2021/12/06 10:11:54;;;;;;;8.23;6.63;;;7.10;93.20;;;;;;956570;149;27378;-80
2021/12/06 10:14:21;;;;;;;8.17;6.90;;;7.10;93.10;;;;;;954186;147;27578;-80
2021/12/06 10:16:47;;;;;;;7.40;6.70;;;7.10;93.10;;;;;;957810;148;27798;-80
2021/12/06 10:19:15;;;;;;;7.50;6.70;;;7.20;93.40;;;;;;955719;150;27280;-80
2021/12/06 10:21:41;;;;;;;7.40;6.70;;;7.20;93.10;;;;;;952318;147;27866;-80
2021/12/06 10:24:07;;;;;;;6.83;6.10;;;7.20;93.10;;;;;;952745;148;27343;-79
2021/12/06 10:26:34;;;;;;;9.00;7.33;;;7.30;93.20;;;;;;958791;149;27292;-80
2021/12/06 10:29:06;;;;;;;8.73;7.73;;;7.30;93.20;;;;;;937170;150;27286;-81
2021/12/06 10:31:32;;;;;;;7.67;6.93;;;7.40;93.20;;;;;;953761;148;27298;-81
2021/12/06 10:33:59;;;;;;;9.53;7.20;;;7.40;93.10;;;;;;943091;150;27871;-81
2021/12/06 10:36:26;;;;;;;7.53;6.57;;;7.50;93.00;;;;;;955250;148;27299;-80
2021/12/06 10:38:53;;;;;;;7.83;7.03;;;7.50;92.90;;;;;;951621;148;27312;-80
2021/12/06 10:41:19;;;;;;;8.30;7.37;;;7.50;92.70;;;;;;950148;150;27394;-80
2021/12/06 10:43:51;;;;;;;7.40;6.70;;;7.60;92.60;;;;;;950984;150;27320;-80
2021/12/06 10:46:18;;;;;;;10.37;8.10;;;7.60;92.60;;;;;;948519;150;27706;-80
2021/12/06 10:48:45;;;;;;;7.77;6.97;;;7.60;92.60;;;;;;937681;150;27373;-80
2021/12/06 10:51:11;;;;;;;7.93;7.13;;;7.70;92.50;;;;;;951732;150;27308;-80
2021/12/06 10:53:41;;;;;;;8.87;7.40;;;7.70;92.50;;;;;;950029;150;27275;-79
2021/12/06 10:56:14;;;;;;;8.70;7.03;;;7.70;92.50;;;;;;953617;147;27366;-80
2021/12/06 10:58:31;;;;;;;8.07;7.27;;;7.70;92.00;;;;;;933108;153;27409;-80
2021/12/06 11:01:03;;;;;;;11.93;7.57;;;7.80;92.40;;;;;;951650;150;27391;-81
2021/12/06 11:03:45;;;;;;;11.03;7.30;;;7.80;92.40;;;;;;954029;150;27331;-80
2021/12/06 11:06:10;;;;;;;7.33;6.50;;;7.80;92.20;;;;;;940533;150;27293;-80
2021/12/06 11:08:35;;;;;;;9.73;8.63;;;7.80;92.20;;;;;;942593;150;27292;-80
2021/12/06 11:11:02;;;;;;;10.87;8.80;;;7.90;92.20;;;;;;958136;148;27409;-81
2021/12/06 11:13:34;;;;;;;9.47;7.27;;;7.90;92.40;;;;;;958271;150;27316;-80
2021/12/06 11:16:13;;;;;;;12.83;9.13;;;7.90;92.50;;;;;;954670;150;27392;-80
2021/12/06 11:18:42;;;;;;;10.43;8.10;;;8.00;92.50;;;;;;947897;149;27419;-80
2021/12/06 11:21:14;;;;;;;10.17;7.53;;;8.00;92.40;;;;;;935967;150;27365;-80
2021/12/06 11:24:15;;;;;;;9.07;8.17;;;8.00;92.40;;;;;;953573;150;27341;-79
2021/12/06 11:26:44;;;;;;;9.63;8.20;;;8.10;92.50;;;;;;946370;150;27311;-80
2021/12/06 11:29:16;;;;;;;11.07;8.60;;;8.10;92.40;;;;;;953410;150;27397;-80
2021/12/06 11:31:43;;;;;;;9.43;8.30;;;8.10;92.10;;;;;;956708;148;27321;-80
2021/12/06 11:34:09;;;;;;;9.60;8.23;;;8.20;91.80;;;;;;961775;148;27278;-80
2021/12/06 11:36:36;;;;;;;11.13;8.60;;;8.10;91.60;;;;;;953808;147;27388;-79
2021/12/06 11:39:05;;;;;;;24.87;9.63;;;8.10;91.50;;;;;;951531;147;27318;-79
2021/12/06 11:41:32;;;;;;;42.70;11.40;;;8.10;91.50;;;;;;956380;148;27274;-79
2021/12/06 11:43:59;;;;;;;21.13;10.10;;;8.10;91.50;;;;;;958088;148;27760;-81
2021/12/06 11:46:31;;;;;;;12.57;8.40;;;8.10;91.40;;;;;;948749;151;27318;-80
2021/12/06 11:48:58;;;;;;;9.50;8.10;;;8.10;91.30;;;;;;949837;150;27419;-80
2021/12/06 11:51:24;;;;;;;21.73;9.37;;;8.00;91.30;;;;;;939175;151;27298;-80
2021/12/06 11:53:51;;;;;;;10.70;8.27;;;8.00;91.50;;;;;;947087;150;27418;-80
2021/12/06 11:56:20;;;;;;;8.60;7.37;;;8.00;91.80;;;;;;945630;150;28272;-80
2021/12/06 11:58:53;;;;;;;8.97;8.00;;;8.00;91.90;;;;;;945640;147;27427;-79
2021/12/06 12:01:28;;;;;;;10.17;7.90;;;8.00;91.90;;;;;;942194;152;27328;-80
2021/12/06 12:04:01;;;;;;;7.47;6.77;;;8.10;92.00;;;;;;946120;150;27393;-79
2021/12/06 12:06:31;;;;;;;9.23;8.20;;;8.10;92.20;;;;;;957826;150;27409;-79
2021/12/06 12:09:18;;;;;;;10.60;8.03;;;8.10;92.20;;;;;;936309;150;27506;-80
2021/12/06 12:11:51;;;;;;;8.87;7.97;;;8.20;92.20;;;;;;956930;149;27264;-79
2021/12/06 12:14:17;;;;;;;9.20;8.23;;;8.20;92.10;;;;;;951259;150;27286;-79
2021/12/06 12:16:44;;;;;;;9.83;8.83;;;8.30;91.90;;;;;;952809;150;27329;-78
2021/12/06 12:19:11;;;;;;;11.93;7.73;;;8.30;91.70;;;;;;949617;150;27321;-79
2021/12/06 12:21:37;;;;;;;8.87;7.03;;;8.30;91.60;;;;;;951848;150;27408;-79
2021/12/06 12:24:04;;;;;;;12.53;8.50;;;8.30;91.60;;;;;;954729;149;27396;-79
2021/12/06 12:26:30;;;;;;;9.37;7.40;;;8.30;91.70;;;;;;949487;150;27507;-78
2021/12/06 12:29:11;;;;;;;8.93;7.97;;;8.30;91.70;;;;;;952211;150;27280;-78
2021/12/06 12:31:28;;;;;;;9.40;8.13;;;8.30;91.60;;;;;;956079;150;27382;-79
2021/12/06 12:33:53;;;;;;;9.07;7.93;;;8.30;91.50;;;;;;951845;150;27287;-80
2021/12/06 12:36:19;;;;;;;11.47;8.27;;;8.20;91.40;;;;;;948128;150;27305;-79
2021/12/06 12:38:46;;;;;;;11.80;8.50;;;8.30;91.30;;;;;;949043;150;27317;-79
2021/12/06 12:41:13;;;;;;;8.43;7.53;;;8.20;91.20;;;;;;948692;151;27347;-79
2021/12/06 12:43:45;;;;;;;7.77;6.83;;;8.20;91.00;;;;;;955525;150;27383;-79
2021/12/06 12:46:17;;;;;;;7.20;6.50;;;8.10;90.80;;;;;;953525;148;27802;-79
2021/12/06 12:48:56;;;;;;;7.73;6.93;;;8.00;90.70;;;;;;951651;150;27422;-79
2021/12/06 12:51:25;;;;;;;7.97;7.17;;;7.90;90.80;;;;;;958962;150;27292;-79
2021/12/06 12:53:59;;;;;;;9.07;6.63;;;7.90;91.00;;;;;;951424;148;27383;-79
2021/12/06 12:56:24;;;;;;;6.80;6.13;;;7.80;91.40;;;;;;952443;150;27288;-80
2021/12/06 12:58:51;;;;;;;9.13;6.37;;;7.70;91.70;;;;;;942921;150;27324;-79
2021/12/06 13:01:17;;;;;;;8.10;6.63;;;7.70;92.00;;;;;;954922;150;27350;-79
2021/12/06 13:03:43;;;;;;;6.90;6.20;;;7.80;92.20;;;;;;955824;150;27407;-78
2021/12/06 13:06:13;;;;;;;7.63;6.50;;;7.80;92.30;;;;;;957025;150;27397;-79